createdAt,value
2022-11-29T00:01:26.026Z,100.00
2022-11-29T00:03:53.544Z,100.00
2022-11-29T00:06:22.742Z,100.00
2022-11-29T00:08:50.224Z,100.00
2022-11-29T00:11:39.093Z,100.00
2022-11-29T00:14:07.271Z,100.00
2022-11-29T00:16:34.028Z,100.00
2022-11-29T00:19:00.707Z,100.00
2022-11-29T00:21:27.346Z,100.00
2022-11-29T00:23:53.959Z,100.00
2022-11-29T00:26:20.881Z,100.00
2022-11-29T00:28:47.437Z,100.00
2022-11-29T00:31:31.842Z,100.00
2022-11-29T00:34:00.825Z,100.00
2022-11-29T00:36:28.171Z,100.00
2022-11-29T00:38:54.800Z,100.00
2022-11-29T00:41:21.487Z,100.00
2022-11-29T00:43:48.249Z,100.00
2022-11-29T00:46:14.954Z,100.00
2022-11-29T00:48:41.554Z,100.00
2022-11-29T00:51:08.827Z,100.00
2022-11-29T00:53:35.794Z,100.00
2022-11-29T00:56:02.526Z,100.00
2022-11-29T00:58:29.227Z,100.00
2022-11-29T01:00:56.706Z,100.00
2022-11-29T01:03:23.575Z,100.00
2022-11-29T01:05:50.531Z,100.00
2022-11-29T01:08:17.438Z,100.00
2022-11-29T01:10:44.168Z,100.00
2022-11-29T01:13:11.329Z,100.00
2022-11-29T01:15:38.451Z,100.00
2022-11-29T01:18:05.487Z,100.00
2022-11-29T01:20:32.130Z,100.00
2022-11-29T01:22:58.912Z,100.00
2022-11-29T01:25:25.595Z,100.00
2022-11-29T01:27:52.127Z,100.00
2022-11-29T01:30:18.725Z,100.00
2022-11-29T01:32:45.266Z,100.00
2022-11-29T01:35:11.837Z,100.00
2022-11-29T01:37:38.439Z,100.00
2022-11-29T01:40:05.798Z,100.00
2022-11-29T01:42:32.383Z,100.00
2022-11-29T01:45:03.823Z,100.00
2022-11-29T01:47:30.911Z,100.00
2022-11-29T01:49:57.648Z,100.00
2022-11-29T01:52:27.535Z,100.00
2022-11-29T01:54:58.332Z,100.00
2022-11-29T01:57:25.924Z,100.00
2022-11-29T01:59:56.918Z,100.00
2022-11-29T02:02:35.567Z,100.00
2022-11-29T02:05:03.551Z,100.00
2022-11-29T02:07:30.298Z,100.00
2022-11-29T02:09:56.897Z,100.00
2022-11-29T02:12:52.468Z,100.00
2022-11-29T02:15:46.309Z,100.00
2022-11-29T02:18:19.134Z,100.00
2022-11-29T02:20:45.589Z,100.00
2022-11-29T02:23:23.845Z,100.00
2022-11-29T02:26:21.216Z,100.00
2022-11-29T02:29:07.809Z,100.00
2022-11-29T02:31:44.432Z,100.00
2022-11-29T02:34:10.885Z,100.00
2022-11-29T02:37:14.230Z,100.00
2022-11-29T02:39:54.856Z,100.00
2022-11-29T02:42:28.136Z,100.00
2022-11-29T02:45:13.142Z,100.00
2022-11-29T02:48:21.193Z,100.00
2022-11-29T02:51:12.702Z,100.00
2022-11-29T02:53:51.391Z,100.00
2022-11-29T02:56:29.749Z,100.00
2022-11-29T02:59:24.677Z,100.00
2022-11-29T03:02:02.505Z,100.00
2022-11-29T03:04:50.860Z,100.00
2022-11-29T03:07:49.331Z,100.00
2022-11-29T03:10:24.646Z,100.00
2022-11-29T03:12:53.792Z,100.00
2022-11-29T03:15:38.581Z,100.00
2022-11-29T03:18:20.182Z,100.00
2022-11-29T03:20:49.688Z,100.00
2022-11-29T03:23:24.140Z,100.00
2022-11-29T03:26:07.525Z,100.00
2022-11-29T03:28:43.125Z,100.00
2022-11-29T03:31:35.064Z,100.00
2022-11-29T03:34:31.830Z,100.00
2022-11-29T03:37:06.231Z,100.00
2022-11-29T03:39:52.446Z,100.00
2022-11-29T03:42:25.186Z,100.00
2022-11-29T03:45:07.971Z,100.00
2022-11-29T03:47:48.898Z,100.00
2022-11-29T03:50:21.948Z,100.00
2022-11-29T03:52:55.910Z,100.00
2022-11-29T03:55:31.179Z,100.00
2022-11-29T03:58:39.201Z,100.00
2022-11-29T04:01:18.455Z,100.00
2022-11-29T04:04:03.075Z,100.00
2022-11-29T04:06:51.314Z,100.00
2022-11-29T04:09:55.243Z,100.00
2022-11-29T04:12:22.311Z,100.00
2022-11-29T04:15:00.761Z,100.00
2022-11-29T04:17:38.046Z,100.00
2022-11-29T04:20:29.120Z,100.00
2022-11-29T04:23:19.689Z,100.00
2022-11-29T04:25:49.537Z,100.00
2022-11-29T04:29:06.679Z,100.00
2022-11-29T04:31:33.335Z,100.00
2022-11-29T04:33:59.866Z,100.00
2022-11-29T04:36:44.942Z,100.00
2022-11-29T04:39:37.802Z,100.00
2022-11-29T04:42:13.248Z,100.00
2022-11-29T04:44:57.981Z,100.00
2022-11-29T04:47:55.410Z,100.00
2022-11-29T04:50:34.104Z,100.00
2022-11-29T04:53:19.561Z,100.00
2022-11-29T04:56:21.476Z,100.00
2022-11-29T04:59:03.016Z,100.00
2022-11-29T05:01:58.818Z,100.00
2022-11-29T05:04:30.003Z,100.00
2022-11-29T05:07:02.274Z,100.00
2022-11-29T05:09:46.779Z,100.00
2022-11-29T05:12:29.523Z,100.00
2022-11-29T05:15:07.857Z,100.00
2022-11-29T05:18:01.131Z,100.00
2022-11-29T05:20:33.689Z,100.00
2022-11-29T05:23:02.982Z,100.00
2022-11-29T05:25:47.971Z,100.00
2022-11-29T05:28:23.170Z,100.00
2022-11-29T05:31:20.099Z,100.00
2022-11-29T05:34:11.488Z,100.00
2022-11-29T05:36:50.892Z,100.00
2022-11-29T05:39:23.296Z,100.00
2022-11-29T05:42:08.906Z,100.00
2022-11-29T05:44:51.079Z,100.00
2022-11-29T05:47:40.261Z,100.00
2022-11-29T05:50:26.294Z,100.00
2022-11-29T05:52:59.059Z,100.00
2022-11-29T05:55:53.997Z,100.00
2022-11-29T05:58:30.605Z,100.00
2022-11-29T06:01:07.063Z,100.00
2022-11-29T06:03:41.849Z,100.00
2022-11-29T06:06:19.711Z,100.00
2022-11-29T06:08:53.586Z,100.00
2022-11-29T06:11:26.240Z,100.00
2022-11-29T06:14:25.665Z,100.00
2022-11-29T06:17:48.740Z,100.00
2022-11-29T06:20:39.316Z,100.00
2022-11-29T06:23:14.796Z,100.00
2022-11-29T06:26:03.531Z,100.00
2022-11-29T06:28:48.826Z,100.00
2022-11-29T06:31:29.837Z,100.00
2022-11-29T06:34:10.311Z,100.00
2022-11-29T06:36:47.765Z,100.00
2022-11-29T06:39:14.681Z,100.00
2022-11-29T06:41:41.200Z,100.00
2022-11-29T06:44:08.531Z,100.00
2022-11-29T06:46:45.538Z,100.00
2022-11-29T06:49:27.343Z,100.00
2022-11-29T06:52:27.709Z,100.00
2022-11-29T06:55:39.930Z,100.00
2022-11-29T06:58:46.477Z,100.00
2022-11-29T07:01:28.024Z,100.00
2022-11-29T07:04:02.584Z,100.00
2022-11-29T07:06:30.006Z,100.00
2022-11-29T07:09:01.214Z,100.00
2022-11-29T07:11:28.274Z,100.00
2022-11-29T07:13:55.054Z,100.00
2022-11-29T07:16:29.174Z,100.00
2022-11-29T07:19:10.682Z,100.00
2022-11-29T07:22:24.958Z,100.00
2022-11-29T07:25:03.641Z,100.00
2022-11-29T07:28:02.204Z,100.00
2022-11-29T07:30:46.665Z,100.00
2022-11-29T07:33:42.013Z,100.00
2022-11-29T07:36:15.200Z,100.00
2022-11-29T07:38:57.321Z,100.00
2022-11-29T07:41:32.180Z,100.00
2022-11-29T07:44:05.852Z,100.00
2022-11-29T07:46:32.439Z,100.00
2022-11-29T07:48:58.945Z,100.00
2022-11-29T07:51:25.741Z,100.00
2022-11-29T07:53:52.307Z,100.00
2022-11-29T07:56:18.966Z,100.00
2022-11-29T07:58:45.580Z,100.00
2022-11-29T08:01:12.738Z,100.00
2022-11-29T08:03:41.958Z,100.00
2022-11-29T08:06:08.874Z,100.00
2022-11-29T08:08:39.231Z,100.00
2022-11-29T08:11:12.067Z,100.00
2022-11-29T08:13:38.650Z,100.00
2022-11-29T08:16:05.506Z,100.00
2022-11-29T08:18:32.076Z,100.00
2022-11-29T08:20:58.689Z,100.00
2022-11-29T08:23:25.324Z,100.00
2022-11-29T08:25:59.259Z,98.83
2022-11-29T08:28:25.821Z,97.44
2022-11-29T08:31:00.330Z,99.50
2022-11-29T08:33:26.960Z,97.90
2022-11-29T08:35:53.528Z,98.21
2022-11-29T08:38:20.070Z,99.94
2022-11-29T08:40:46.581Z,100.00
2022-11-29T08:43:13.069Z,97.74
2022-11-29T08:45:39.649Z,97.54
2022-11-29T08:48:06.676Z,98.36
2022-11-29T08:50:33.166Z,95.50
2022-11-29T08:53:17.819Z,97.77
2022-11-29T08:55:46.620Z,94.19
2022-11-29T08:58:15.148Z,96.00
2022-11-29T09:00:44.237Z,94.91
2022-11-29T09:03:29.093Z,94.53
2022-11-29T09:05:56.004Z,97.33
2022-11-29T09:08:22.633Z,95.37
2022-11-29T09:10:49.582Z,93.16
2022-11-29T09:13:17.583Z,93.85
2022-11-29T09:15:44.171Z,91.62
2022-11-29T09:18:11.097Z,91.76
2022-11-29T09:20:37.675Z,92.17
2022-11-29T09:23:04.785Z,92.86
2022-11-29T09:25:31.329Z,91.11
2022-11-29T09:28:01.278Z,91.11
2022-11-29T09:30:30.609Z,90.01
2022-11-29T09:33:02.773Z,91.07
2022-11-29T09:35:30.007Z,91.15
2022-11-29T09:37:56.528Z,90.18
2022-11-29T09:40:39.159Z,89.46
2022-11-29T09:43:37.248Z,90.36
2022-11-29T09:46:28.338Z,89.23
2022-11-29T09:49:31.520Z,90.27
2022-11-29T09:52:16.430Z,90.46
2022-11-29T09:54:55.236Z,90.67
2022-11-29T09:57:23.983Z,91.91
2022-11-29T09:59:57.613Z,92.65
2022-11-29T10:02:40.240Z,92.27
2022-11-29T10:05:15.290Z,90.55
2022-11-29T10:07:49.446Z,88.45
2022-11-29T10:10:26.050Z,88.00
2022-11-29T10:13:00.341Z,88.41
2022-11-29T10:15:30.787Z,85.58
2022-11-29T10:18:21.282Z,84.86
2022-11-29T10:20:51.339Z,84.22
2022-11-29T10:23:31.521Z,84.76
2022-11-29T10:25:59.167Z,84.51
2022-11-29T10:28:34.440Z,84.35
2022-11-29T10:31:19.090Z,86.41
2022-11-29T10:33:46.741Z,83.80
2022-11-29T10:36:39.374Z,84.64
2022-11-29T10:39:47.256Z,85.61
2022-11-29T10:42:37.909Z,82.72
2022-11-29T10:45:11.169Z,82.74
2022-11-29T10:47:37.863Z,80.60
2022-11-29T10:50:04.651Z,82.16
2022-11-29T10:52:31.196Z,81.04
2022-11-29T10:54:59.574Z,82.23
2022-11-29T10:57:26.275Z,80.03
2022-11-29T11:00:00.709Z,79.87
2022-11-29T11:02:27.927Z,76.58
2022-11-29T11:04:54.648Z,76.00
2022-11-29T11:07:29.393Z,73.81
2022-11-29T11:09:58.044Z,75.16
2022-11-29T11:12:28.963Z,75.03
2022-11-29T11:15:31.832Z,75.90
2022-11-29T11:18:04.974Z,74.53
2022-11-29T11:20:38.095Z,75.24
2022-11-29T11:23:08.280Z,75.35
2022-11-29T11:25:39.022Z,75.15
2022-11-29T11:28:36.675Z,75.88
2022-11-29T11:31:08.354Z,75.98
2022-11-29T11:33:41.005Z,74.39
2022-11-29T11:36:19.584Z,75.12
2022-11-29T11:38:51.089Z,75.56
2022-11-29T11:41:23.691Z,75.34
2022-11-29T11:43:58.454Z,75.54
2022-11-29T11:46:50.546Z,75.58
2022-11-29T11:49:36.565Z,75.65
2022-11-29T11:52:06.727Z,76.24
2022-11-29T11:54:33.467Z,75.48
2022-11-29T11:57:00.313Z,74.68
2022-11-29T11:59:28.034Z,74.57
2022-11-29T12:01:54.742Z,75.65
2022-11-29T12:04:35.602Z,76.71
2022-11-29T12:07:17.883Z,73.12
2022-11-29T12:09:56.222Z,73.80
2022-11-29T12:12:41.081Z,74.38
2022-11-29T12:15:19.260Z,74.11
2022-11-29T12:18:10.190Z,75.95
2022-11-29T12:21:05.338Z,75.33
2022-11-29T12:23:58.207Z,75.28
2022-11-29T12:29:29.829Z,73.64
2022-11-29T12:32:10.491Z,72.23
2022-11-29T12:34:43.806Z,74.08
2022-11-29T12:37:32.600Z,74.80
2022-11-29T12:40:44.424Z,73.91
2022-11-29T12:43:53.308Z,75.94
2022-11-29T12:46:29.410Z,76.51
2022-11-29T12:49:17.276Z,77.85
2022-11-29T12:51:55.678Z,79.36
2022-11-29T12:54:35.277Z,77.32
2022-11-29T12:57:14.367Z,77.30
2022-11-29T12:59:43.789Z,77.40
2022-11-29T13:02:40.238Z,79.38
2022-11-29T13:05:24.968Z,79.44
2022-11-29T13:08:22.206Z,80.63
2022-11-29T13:11:15.118Z,80.39
2022-11-29T13:13:41.676Z,80.93
2022-11-29T13:16:38.873Z,82.11
2022-11-29T13:19:18.579Z,81.27
2022-11-29T13:21:51.054Z,81.56
2022-11-29T13:24:28.939Z,80.88
2022-11-29T13:26:56.483Z,81.44
2022-11-29T13:29:23.983Z,81.19
2022-11-29T13:31:51.698Z,81.14
2022-11-29T13:34:31.002Z,81.53
2022-11-29T13:37:12.900Z,81.86
2022-11-29T13:39:48.523Z,81.86
2022-11-29T13:42:38.979Z,82.06
2022-11-29T13:45:27.877Z,80.69
2022-11-29T13:47:58.477Z,81.53
2022-11-29T13:50:39.730Z,82.27
2022-11-29T13:53:14.287Z,81.66
2022-11-29T13:55:46.947Z,82.06
2022-11-29T13:58:17.829Z,81.77
2022-11-29T14:00:44.824Z,82.10
2022-11-29T14:03:29.406Z,83.18
2022-11-29T14:06:01.979Z,83.61
2022-11-29T14:08:55.169Z,84.87
2022-11-29T14:11:26.551Z,84.50
2022-11-29T14:14:31.582Z,83.94
2022-11-29T14:17:02.012Z,84.24
2022-11-29T14:19:34.410Z,85.85
2022-11-29T14:22:07.097Z,86.80
2022-11-29T14:24:36.610Z,86.50
2022-11-29T14:27:05.836Z,86.78
2022-11-29T14:29:47.788Z,87.03
2022-11-29T14:32:44.543Z,85.86
2022-11-29T14:35:20.165Z,86.50
2022-11-29T14:38:12.985Z,84.84
2022-11-29T14:40:42.198Z,86.86
2022-11-29T14:43:38.571Z,84.72
2022-11-29T14:46:10.030Z,85.53
2022-11-29T14:48:38.346Z,85.49
2022-11-29T14:51:19.553Z,86.24
2022-11-29T14:53:48.962Z,84.47
2022-11-29T14:56:39.412Z,85.81
2022-11-29T14:59:51.695Z,86.12
2022-11-29T15:02:35.222Z,86.99
2022-11-29T15:05:22.192Z,86.96
2022-11-29T15:08:06.639Z,86.80
2022-11-29T15:10:39.037Z,86.09
2022-11-29T15:13:10.843Z,85.66
2022-11-29T15:16:05.787Z,84.70
2022-11-29T15:19:06.035Z,85.22
2022-11-29T15:21:57.455Z,85.99
2022-11-29T15:24:28.320Z,85.72
2022-11-29T15:26:57.281Z,87.49
2022-11-29T15:29:25.056Z,85.01
2022-11-29T15:32:00.548Z,86.58
2022-11-29T15:34:30.603Z,85.23
2022-11-29T15:36:57.588Z,85.27
2022-11-29T15:39:35.598Z,85.27
2022-11-29T15:42:03.490Z,85.24
2022-11-29T15:44:32.713Z,85.88
2022-11-29T15:47:25.132Z,86.25
2022-11-29T15:49:53.678Z,86.05
2022-11-29T15:52:31.753Z,85.32
2022-11-29T15:55:05.400Z,85.07
2022-11-29T15:57:38.809Z,86.17
2022-11-29T16:00:08.899Z,85.32
2022-11-29T16:02:40.062Z,85.89
2022-11-29T16:05:14.314Z,86.06
2022-11-29T16:07:41.923Z,87.70
2022-11-29T16:10:15.982Z,87.01
2022-11-29T16:12:55.783Z,87.79
2022-11-29T16:15:37.215Z,87.06
2022-11-29T16:18:05.520Z,85.82
2022-11-29T16:20:32.218Z,86.45
2022-11-29T16:23:08.115Z,85.73
2022-11-29T16:25:48.190Z,85.24
2022-11-29T16:28:14.988Z,83.19
2022-11-29T16:30:44.668Z,82.90
2022-11-29T16:33:21.448Z,83.29
2022-11-29T16:35:48.949Z,82.31
2022-11-29T16:38:22.539Z,82.60
2022-11-29T16:41:20.151Z,82.83
2022-11-29T16:43:53.788Z,84.42
2022-11-29T16:46:20.404Z,84.50
2022-11-29T16:48:48.898Z,84.05
2022-11-29T16:51:23.950Z,83.84
2022-11-29T16:53:51.900Z,83.31
2022-11-29T16:56:24.365Z,82.52
2022-11-29T16:59:20.845Z,83.07
2022-11-29T17:01:49.358Z,83.47
2022-11-29T17:04:23.835Z,84.10
2022-11-29T17:06:52.906Z,84.81
2022-11-29T17:09:31.556Z,85.37
2022-11-29T17:12:02.008Z,85.19
2022-11-29T17:14:29.381Z,84.98
2022-11-29T17:16:55.963Z,84.67
2022-11-29T17:19:23.832Z,85.54
2022-11-29T17:21:52.055Z,85.75
2022-11-29T17:24:22.549Z,86.40
2022-11-29T17:26:49.682Z,86.25
2022-11-29T17:29:17.983Z,85.70
2022-11-29T17:31:46.092Z,86.14
2022-11-29T17:34:13.053Z,85.96
2022-11-29T17:36:40.478Z,85.90
2022-11-29T17:39:07.319Z,86.09
2022-11-29T17:41:34.311Z,87.30
2022-11-29T17:44:00.991Z,86.48
2022-11-29T17:46:35.205Z,86.71
2022-11-29T17:49:04.298Z,84.78
2022-11-29T17:54:18.286Z,86.42
2022-11-29T17:56:44.889Z,86.08
2022-11-29T17:59:11.493Z,86.07
2022-11-29T18:01:38.051Z,87.44
2022-11-29T18:04:06.349Z,87.70
2022-11-29T18:06:38.292Z,87.93
2022-11-29T18:09:06.594Z,87.33
2022-11-29T18:11:44.925Z,86.22
2022-11-29T18:14:16.323Z,86.90
2022-11-29T18:16:45.403Z,87.83
2022-11-29T18:19:19.198Z,86.66
2022-11-29T18:21:45.955Z,87.13
2022-11-29T18:24:12.655Z,87.78
2022-11-29T18:26:39.699Z,87.30
2022-11-29T18:29:07.416Z,87.65
2022-11-29T18:31:39.820Z,87.84
2022-11-29T18:34:09.421Z,86.96
2022-11-29T18:36:39.109Z,87.63
2022-11-29T18:39:09.023Z,86.92
2022-11-29T18:41:36.589Z,87.50
2022-11-29T18:44:05.963Z,87.65
2022-11-29T18:46:33.419Z,87.15
2022-11-29T18:49:03.254Z,87.66
2022-11-29T18:51:31.189Z,88.15
2022-11-29T18:53:58.929Z,87.28
2022-11-29T18:56:28.207Z,87.12
2022-11-29T18:59:00.059Z,86.86
2022-11-29T19:01:29.164Z,87.28
2022-11-29T19:03:58.247Z,88.90
2022-11-29T19:06:27.962Z,87.90
2022-11-29T19:08:54.950Z,88.94
2022-11-29T19:11:23.653Z,87.98
2022-11-29T19:13:59.933Z,88.91
2022-11-29T19:16:29.063Z,89.14
2022-11-29T19:18:57.219Z,89.20
2022-11-29T19:21:25.389Z,88.12
2022-11-29T19:23:56.689Z,87.67
2022-11-29T19:26:26.084Z,88.38
2022-11-29T19:28:53.496Z,88.18
2022-11-29T19:31:20.614Z,89.21
2022-11-29T19:33:47.509Z,89.14
2022-11-29T19:36:16.367Z,88.87
2022-11-29T19:38:48.787Z,89.04
2022-11-29T19:41:39.808Z,89.09
2022-11-29T19:44:07.867Z,89.10
2022-11-29T19:46:37.848Z,89.51
2022-11-29T19:49:06.185Z,89.15
2022-11-29T19:51:33.059Z,88.45
2022-11-29T19:54:01.926Z,88.72
2022-11-29T19:56:29.591Z,89.29
2022-11-29T19:58:56.627Z,88.74
2022-11-29T20:01:27.987Z,88.43
2022-11-29T20:03:58.449Z,89.77
2022-11-29T20:06:29.693Z,90.76
2022-11-29T20:08:57.292Z,91.06
2022-11-29T20:11:25.188Z,91.49
2022-11-29T20:13:57.875Z,92.32
2022-11-29T20:16:25.437Z,91.90
2022-11-29T20:18:52.994Z,92.14
2022-11-29T20:21:22.681Z,92.68
2022-11-29T20:23:49.331Z,92.58
2022-11-29T20:26:20.813Z,91.72
2022-11-29T20:28:47.916Z,92.47
2022-11-29T20:31:21.483Z,93.76
2022-11-29T20:33:49.191Z,93.83
2022-11-29T20:36:34.566Z,93.19
2022-11-29T20:39:06.995Z,91.91
2022-11-29T20:41:45.756Z,92.12
2022-11-29T20:44:19.825Z,91.81
2022-11-29T20:46:46.590Z,92.65
2022-11-29T20:49:15.174Z,91.24
2022-11-29T20:51:58.579Z,90.86
2022-11-29T20:54:25.165Z,90.68
2022-11-29T20:56:51.732Z,91.18
2022-11-29T20:59:18.334Z,90.99
2022-11-29T21:01:45.056Z,91.24
2022-11-29T21:04:11.629Z,92.02
2022-11-29T21:06:39.053Z,91.25
2022-11-29T21:09:06.107Z,90.15
2022-11-29T21:11:32.646Z,90.63
2022-11-29T21:14:03.515Z,90.01
2022-11-29T21:16:31.748Z,90.37
2022-11-29T21:19:01.590Z,90.39
2022-11-29T21:21:44.727Z,91.09
2022-11-29T21:24:38.804Z,91.02
2022-11-29T21:27:05.533Z,90.77
2022-11-29T21:29:32.226Z,90.88
2022-11-29T21:32:00.775Z,90.87
2022-11-29T21:34:27.408Z,90.84
2022-11-29T21:36:59.354Z,91.66
2022-11-29T21:39:35.125Z,92.53
2022-11-29T21:42:02.092Z,93.43
2022-11-29T21:44:28.672Z,93.98
2022-11-29T21:46:55.451Z,93.73
2022-11-29T21:49:22.066Z,94.00
2022-11-29T21:51:48.625Z,94.80
2022-11-29T21:54:15.129Z,94.81
2022-11-29T21:56:41.796Z,94.70
2022-11-29T21:59:08.342Z,95.95
2022-11-29T22:01:34.920Z,94.57
2022-11-29T22:04:01.572Z,94.29
2022-11-29T22:06:29.486Z,94.29
2022-11-29T22:08:56.932Z,93.88
2022-11-29T22:11:35.441Z,95.11
2022-11-29T22:14:14.736Z,94.40
2022-11-29T22:16:58.989Z,94.71
2022-11-29T22:19:33.132Z,93.82
2022-11-29T22:22:01.735Z,96.03
2022-11-29T22:24:31.315Z,96.30
2022-11-29T22:26:58.114Z,95.91
2022-11-29T22:29:25.044Z,95.01
2022-11-29T22:31:53.511Z,94.66
2022-11-29T22:34:21.225Z,95.66
2022-11-29T22:36:48.019Z,94.21
2022-11-29T22:39:15.016Z,93.14
2022-11-29T22:41:41.719Z,92.85
2022-11-29T22:44:08.246Z,93.34
2022-11-29T22:46:37.630Z,94.32
2022-11-29T22:49:04.338Z,93.37
2022-11-29T22:51:33.842Z,93.84
2022-11-29T22:54:03.305Z,93.10
2022-11-29T22:56:32.644Z,93.07
2022-11-29T22:58:59.165Z,92.65
2022-11-29T23:01:28.122Z,93.20
2022-11-29T23:03:59.357Z,92.58
2022-11-29T23:06:28.563Z,93.09
2022-11-29T23:08:57.834Z,92.90
2022-11-29T23:11:29.348Z,92.90
2022-11-29T23:13:56.042Z,93.09
2022-11-29T23:16:25.461Z,93.13
2022-11-29T23:18:52.426Z,92.31
2022-11-29T23:21:24.710Z,93.40
2022-11-29T23:23:56.265Z,92.71
2022-11-29T23:26:37.466Z,93.48
2022-11-29T23:29:05.302Z,94.51
2022-11-29T23:31:32.065Z,93.36
2022-11-29T23:33:58.652Z,93.43
2022-11-29T23:36:25.469Z,93.13
2022-11-29T23:38:53.181Z,92.91
2022-11-29T23:41:19.783Z,93.25
2022-11-29T23:43:46.458Z,92.91
2022-11-29T23:46:16.965Z,93.67
2022-11-29T23:48:43.932Z,93.94
2022-11-29T23:51:13.387Z,93.34
2022-11-29T23:53:40.758Z,93.30
2022-11-29T23:56:09.810Z,94.43
2022-11-29T23:58:36.421Z,94.62
